Hauptseite
METAR-TAF:

METAR-TAF

Flughäfen :

Flughafen Erfurt-Weimar

Erfurt, Deutschland

Breite: 50-59N, Länge: 010-58E, Höhe: 315 m

Beobachtung

Neuester Wetterbericht von vor 25 Minuten, um 14:20 UTC
Wind 2 kt aus unterschiedlichen Richtungen
Temperatur 8°C
Luftfeuchtigkeit 57%
Luftdruck 1021 hPa
Sichtweite 10 km oder mehr
keine Wolken unter 1500 m und keine Kumulonimbus oder Gewitterwolken

METAR: EDDE 281420Z AUTO VRB02KT CAVOK 08/M00 Q1021

Zeit: 15:45 (14:45 UTC)

Prognose

Neuester Wetterbericht von vor 3 Stunden und 45 Minuten, um 11:00 UTC
Gültige Prognose vom 28 um 12 UTC bis 29 um 12 UTC
Wind 4 kt aus West
Sichtweite 10 km oder mehr
keine Wolken unter 1500 m und keine Kumulonimbus oder Gewitterwolken
Übergehend zu
vom 28 um 17 UTC bis 28 um 20 UTC
Wind 5 kt aus Süd

TAF: EDDE 281100Z 2812/2912 28004KT CAVOK BECMG 2817/2820 19005KT

Wetterbeobachtungen und Prognosen von mehr als 4000 Flughäfen (METAR und TAF Bericht).

Die verfügbaren Stationen werden durch gelbe und rote Markierungen auf der Karte dargestellt.

Führen Sie die Maus auf sie, um den Namen der Station zu sehen.

Darauf klicken, um die Beobachtung von Wetterbeobachtungen und Prognosen zu sehen.

Um die Karte zu ändern : klicken Sie auf den grünen Tasten mit einem schwarzen Kreuz Zum Vergrößern, auf den grünen Button mit einem Gedankenstrich zu verkleinern, oder auf die grünen Pfeile für benachbarte Karten.


METAR-TAF: